createdAt,value
2024-04-25T00:01:50.949Z,8.32
2024-04-25T00:04:17.882Z,8.27
2024-04-25T00:06:44.693Z,8.28
2024-04-25T00:09:11.427Z,8.25
2024-04-25T00:11:38.401Z,8.21
2024-04-25T00:14:05.202Z,8.25
2024-04-25T00:16:32.007Z,8.28
2024-04-25T00:18:58.979Z,8.22
2024-04-25T00:21:25.747Z,8.21
2024-04-25T00:23:52.535Z,8.22
2024-04-25T00:26:19.291Z,8.25
2024-04-25T00:28:46.142Z,8.25
2024-04-25T00:31:12.915Z,8.31
2024-04-25T00:33:39.781Z,8.31
2024-04-25T00:36:07.970Z,8.26
2024-04-25T00:38:34.774Z,8.14
2024-04-25T00:41:01.593Z,8.16
2024-04-25T00:43:32.577Z,8.14
2024-04-25T00:46:02.868Z,8.04
2024-04-25T00:48:30.478Z,8.11
2024-04-25T00:50:59.747Z,8.18
2024-04-25T00:53:27.644Z,8.07
2024-04-25T00:55:57.616Z,7.94
2024-04-25T00:58:28.653Z,7.88
2024-04-25T01:00:57.633Z,7.97
2024-04-25T01:03:25.261Z,7.97
2024-04-25T01:05:52.781Z,7.90
2024-04-25T01:08:19.619Z,8.02
2024-04-25T01:10:46.805Z,7.94
2024-04-25T01:13:13.756Z,7.93
2024-04-25T01:15:40.654Z,8.05
2024-04-25T01:18:07.552Z,8.04
2024-04-25T01:20:34.454Z,7.99
2024-04-25T01:23:04.054Z,8.02
2024-04-25T01:25:31.481Z,8.06
2024-04-25T01:27:58.373Z,8.06
2024-04-25T01:30:25.730Z,8.09
2024-04-25T01:32:52.808Z,8.11
2024-04-25T01:35:21.419Z,8.09
2024-04-25T01:37:49.720Z,8.14
2024-04-25T01:40:16.671Z,8.11
2024-04-25T01:42:43.403Z,8.13
2024-04-25T01:45:12.586Z,8.18
2024-04-25T01:47:39.439Z,8.18
2024-04-25T01:50:07.036Z,8.15
2024-04-25T01:52:33.768Z,8.17
2024-04-25T01:55:00.644Z,8.17
2024-04-25T01:57:27.402Z,8.08
2024-04-25T01:59:54.230Z,8.03
2024-04-25T02:02:21.065Z,7.98
2024-04-25T02:04:47.944Z,7.95
2024-04-25T02:07:14.695Z,7.97
2024-04-25T02:09:41.444Z,7.93
2024-04-25T02:12:11.066Z,7.97
2024-04-25T02:14:38.035Z,7.95
2024-04-25T02:17:07.035Z,7.78
2024-04-25T02:19:33.811Z,7.83
2024-04-25T02:22:00.562Z,7.89
2024-04-25T02:24:27.433Z,7.94
2024-04-25T02:26:54.229Z,7.83
2024-04-25T02:29:20.970Z,7.71
2024-04-25T02:31:47.815Z,7.83
2024-04-25T02:34:14.658Z,7.83
2024-04-25T02:36:41.478Z,7.73
2024-04-25T02:39:08.250Z,7.61
2024-04-25T02:41:35.078Z,7.65
2024-04-25T02:44:01.937Z,7.64
2024-04-25T02:46:28.704Z,7.63
2024-04-25T02:48:55.602Z,7.62
2024-04-25T02:51:22.573Z,7.56
2024-04-25T02:53:49.497Z,7.58
2024-04-25T02:56:16.470Z,7.49
2024-04-25T02:58:44.510Z,7.50
2024-04-25T03:01:11.492Z,7.45
2024-04-25T03:03:38.421Z,7.52
2024-04-25T03:06:05.541Z,7.49
2024-04-25T03:08:32.343Z,7.53
2024-04-25T03:11:03.763Z,7.52
2024-04-25T03:13:30.511Z,7.55
2024-04-25T03:15:57.343Z,7.46
2024-04-25T03:18:24.192Z,7.45
2024-04-25T03:20:51.020Z,7.49
2024-04-25T03:23:17.949Z,7.39
2024-04-25T03:25:44.855Z,7.38
2024-04-25T03:28:11.602Z,7.37
2024-04-25T03:30:38.363Z,7.34
2024-04-25T03:33:05.507Z,7.22
2024-04-25T03:35:32.324Z,7.33
2024-04-25T03:38:00.709Z,7.39
2024-04-25T03:40:29.434Z,7.34
2024-04-25T03:42:56.143Z,7.28
2024-04-25T03:45:23.052Z,7.32
2024-04-25T03:47:49.957Z,7.22
2024-04-25T03:50:16.808Z,7.33
2024-04-25T03:52:43.719Z,7.27
2024-04-25T03:55:10.540Z,7.31
2024-04-25T03:57:37.284Z,7.36
2024-04-25T04:00:05.238Z,7.28
2024-04-25T04:02:32.234Z,7.24
2024-04-25T04:04:58.984Z,7.27
2024-04-25T04:07:25.764Z,7.29
2024-04-25T04:09:52.508Z,7.33
2024-04-25T04:12:19.379Z,7.30
2024-04-25T04:14:46.240Z,7.35
2024-04-25T04:17:13.345Z,7.38
2024-04-25T04:19:40.161Z,7.38
2024-04-25T04:22:06.981Z,7.41
2024-04-25T04:24:33.793Z,7.42
2024-04-25T04:27:00.659Z,7.43
2024-04-25T04:29:28.147Z,7.44
2024-04-25T04:31:55.100Z,7.45
2024-04-25T04:34:21.987Z,7.59
2024-04-25T04:36:48.938Z,7.58
2024-04-25T04:39:15.778Z,7.67
2024-04-25T04:41:45.457Z,7.68
2024-04-25T04:44:12.360Z,7.71
2024-04-25T04:46:39.234Z,7.70
2024-04-25T04:49:06.131Z,7.74
2024-04-25T04:51:32.917Z,7.79
2024-04-25T04:53:59.663Z,7.68
2024-04-25T04:56:26.654Z,7.74
2024-04-25T04:58:54.990Z,7.73
2024-04-25T05:01:21.783Z,7.76
2024-04-25T05:03:48.646Z,7.87
2024-04-25T05:06:15.390Z,7.94
2024-04-25T05:08:42.177Z,7.98
2024-04-25T05:11:09.494Z,7.94
2024-04-25T05:13:36.248Z,8.01
2024-04-25T05:16:03.305Z,8.03
2024-04-25T05:18:30.216Z,8.04
2024-04-25T05:20:57.103Z,8.02
2024-04-25T05:23:24.062Z,8.09
2024-04-25T05:25:50.793Z,8.07
2024-04-25T05:28:17.761Z,8.00
2024-04-25T14:26:20.118Z,13.38
2024-04-25T14:28:48.926Z,13.62
2024-04-25T14:31:16.583Z,13.61
2024-04-25T14:33:43.564Z,13.40
2024-04-25T14:36:10.541Z,13.81
2024-04-25T14:38:37.395Z,13.79
2024-04-25T14:41:07.223Z,13.83
2024-04-25T14:43:35.841Z,13.76
2024-04-25T14:46:02.732Z,13.69
2024-04-25T14:48:32.419Z,13.62
2024-04-25T14:50:59.846Z,13.67
2024-04-25T14:53:27.894Z,13.60
2024-04-25T14:55:54.772Z,13.34
2024-04-25T14:58:21.905Z,13.52
2024-04-25T15:00:48.727Z,13.39
2024-04-25T15:03:15.578Z,13.64
2024-04-25T15:05:45.266Z,13.25
2024-04-25T15:08:12.258Z,13.33
2024-04-25T15:10:39.052Z,13.31
2024-04-25T15:13:12.165Z,13.18
2024-04-25T15:15:38.925Z,13.09
2024-04-25T15:18:06.241Z,13.14
2024-04-25T15:20:33.040Z,13.35
2024-04-25T15:23:00.724Z,13.31
2024-04-25T15:25:28.038Z,13.46
2024-04-25T15:27:56.061Z,13.48
2024-04-25T15:30:22.911Z,13.62
2024-04-25T15:32:49.831Z,13.57
2024-04-25T15:35:16.748Z,13.61
2024-04-25T15:37:44.030Z,13.42
2024-04-25T15:40:10.932Z,13.62
2024-04-25T15:42:37.923Z,13.58
2024-04-25T15:45:05.061Z,13.70
2024-04-25T15:47:32.238Z,13.71
2024-04-25T15:49:59.395Z,13.76
2024-04-25T15:52:26.161Z,13.82
2024-04-25T15:54:53.010Z,13.90
2024-04-25T15:57:19.851Z,13.99
2024-04-25T15:59:49.819Z,13.85
2024-04-25T16:02:19.031Z,13.85
2024-04-25T16:04:49.363Z,13.59
2024-04-25T16:07:18.232Z,13.60
2024-04-25T16:09:45.614Z,13.16
2024-04-25T16:12:12.668Z,13.37
2024-04-25T16:14:42.402Z,13.34
2024-04-25T16:17:12.632Z,13.40
2024-04-25T16:19:39.456Z,13.35
2024-04-25T16:22:06.364Z,13.39
2024-04-25T16:24:33.149Z,13.36
2024-04-25T16:27:00.051Z,13.29
2024-04-25T16:29:26.874Z,13.37
2024-04-25T16:31:53.918Z,13.36
2024-04-25T16:34:20.854Z,13.28
2024-04-25T16:36:47.787Z,13.17
2024-04-25T16:39:14.721Z,13.13
2024-04-25T16:41:41.525Z,13.10
2024-04-25T16:44:08.555Z,13.07
2024-04-25T16:46:38.368Z,12.90
2024-04-25T16:49:05.246Z,13.02
2024-04-25T16:51:32.288Z,13.00
2024-04-25T16:53:59.320Z,12.86
2024-04-25T16:56:26.253Z,12.73
2024-04-25T16:58:56.208Z,12.79
2024-04-25T17:01:25.951Z,12.72
2024-04-25T17:03:52.890Z,12.65
2024-04-25T17:06:19.892Z,12.69
2024-04-25T17:08:46.836Z,12.49
2024-04-25T17:11:20.699Z,12.52
2024-04-25T17:13:47.634Z,12.49
2024-04-25T17:16:16.066Z,12.47
2024-04-25T17:18:45.932Z,12.47
2024-04-25T17:21:12.707Z,12.43
2024-04-25T17:23:39.652Z,12.30
2024-04-25T17:26:07.999Z,12.18
2024-04-25T17:28:37.414Z,12.07
2024-04-25T17:31:04.410Z,12.01
2024-04-25T17:33:31.770Z,12.00
2024-04-25T17:35:58.744Z,11.87
2024-04-25T17:38:25.755Z,11.84
2024-04-25T17:40:54.172Z,11.83
2024-04-25T17:43:20.939Z,11.71
2024-04-25T17:45:47.700Z,11.61
2024-04-25T17:48:14.703Z,11.65
2024-04-25T17:50:44.898Z,11.60
2024-04-25T17:53:11.795Z,11.47
2024-04-25T17:55:38.923Z,11.26
2024-04-25T17:58:05.888Z,11.30
2024-04-25T18:00:32.703Z,11.31
2024-04-25T18:02:59.451Z,11.28
2024-04-25T18:05:26.204Z,11.16
2024-04-25T18:07:53.014Z,11.08
2024-04-25T18:10:19.779Z,11.01
2024-04-25T18:12:46.715Z,11.07
2024-04-25T18:15:15.614Z,10.95
2024-04-25T18:17:42.490Z,10.91
2024-04-25T18:20:10.103Z,10.83
2024-04-25T18:22:39.714Z,10.77
2024-04-25T18:25:06.851Z,10.75
2024-04-25T18:27:33.714Z,10.74
2024-04-25T18:30:00.629Z,10.64
2024-04-25T18:32:27.842Z,10.70
2024-04-25T18:34:54.630Z,10.63
2024-04-25T18:37:21.439Z,10.62
2024-04-25T18:39:48.227Z,10.64
2024-04-25T18:42:15.274Z,10.58
2024-04-25T18:44:42.174Z,10.50
2024-04-25T18:47:08.921Z,10.58
2024-04-25T18:49:35.742Z,10.54
2024-04-25T18:52:02.543Z,10.46
2024-04-25T18:54:29.362Z,10.50
2024-04-25T18:56:56.325Z,10.46
2024-04-25T18:59:23.344Z,10.42
2024-04-25T19:01:50.328Z,10.38
2024-04-25T19:04:17.114Z,10.38
2024-04-25T19:06:43.923Z,10.33
2024-04-25T19:09:10.690Z,10.24
2024-04-25T19:11:40.304Z,10.21
2024-04-25T19:14:09.975Z,10.27
2024-04-25T19:16:36.826Z,10.19
2024-04-25T19:19:03.830Z,10.10
2024-04-25T19:21:38.879Z,10.21
2024-04-25T19:24:12.828Z,10.12
2024-04-25T19:26:43.525Z,10.07
2024-04-25T19:29:14.079Z,10.01
2024-04-25T19:31:45.056Z,9.95
2024-04-25T19:34:19.425Z,9.94
2024-04-25T19:36:48.713Z,9.89
2024-04-25T19:39:16.141Z,9.89
2024-04-25T19:41:46.350Z,9.94
2024-04-25T19:44:13.463Z,10.05
2024-04-25T19:46:40.184Z,10.05
2024-04-25T19:49:07.151Z,9.77
2024-04-25T19:51:34.325Z,9.77
2024-04-25T19:54:01.294Z,9.49
2024-04-25T19:56:28.082Z,9.32
2024-04-25T19:58:54.890Z,9.38
2024-04-25T20:01:21.669Z,9.47
2024-04-25T20:03:51.324Z,9.56
2024-04-25T20:06:18.114Z,9.46
2024-04-25T20:08:44.863Z,9.42
2024-04-25T20:11:14.462Z,9.24
2024-04-25T20:13:42.262Z,9.16
2024-04-25T20:16:18.617Z,9.01
2024-04-25T20:18:45.705Z,9.03
2024-04-25T20:21:13.455Z,8.91
2024-04-25T20:23:43.988Z,8.74
2024-04-25T20:26:13.991Z,8.83
2024-04-25T20:28:41.827Z,9.01
2024-04-25T20:31:14.322Z,9.12
2024-04-25T20:33:41.175Z,9.11
2024-04-25T20:36:11.026Z,8.90
2024-04-25T20:38:38.276Z,8.84
2024-04-25T20:41:07.797Z,8.80
2024-04-25T20:43:40.899Z,8.78
2024-04-25T20:46:10.590Z,8.70
2024-04-25T20:48:37.458Z,8.74
2024-04-25T20:51:04.369Z,8.70
2024-04-25T20:53:31.381Z,8.69
2024-04-25T20:55:58.348Z,8.74
2024-04-25T20:58:28.346Z,8.72
2024-04-25T21:00:56.636Z,8.77
2024-04-25T21:03:26.625Z,8.79
2024-04-25T21:05:53.527Z,8.81
2024-04-25T21:08:23.371Z,8.77
2024-04-25T21:10:50.363Z,8.75
2024-04-25T21:13:17.230Z,8.75
2024-04-25T21:15:47.063Z,8.75
2024-04-25T21:18:16.609Z,8.90
2024-04-25T21:20:43.671Z,8.95
2024-04-25T21:23:10.638Z,8.88
2024-04-25T21:25:47.931Z,8.83
2024-04-25T21:28:18.465Z,8.85
2024-04-25T21:30:45.483Z,8.84
2024-04-25T21:33:12.403Z,8.73
2024-04-25T21:35:39.551Z,8.43
2024-04-25T21:38:06.473Z,8.26
2024-04-25T21:40:33.279Z,8.24
2024-04-25T21:43:02.837Z,8.27
2024-04-25T21:45:29.611Z,8.40
2024-04-25T21:47:56.744Z,8.39
2024-04-25T21:50:23.689Z,8.15
2024-04-25T21:52:50.470Z,8.20
2024-04-25T21:55:17.234Z,8.33
2024-04-25T21:57:44.317Z,8.45
2024-04-25T22:00:11.478Z,8.45
2024-04-25T22:02:38.364Z,8.43
2024-04-25T22:05:05.641Z,8.47
2024-04-25T22:07:35.264Z,8.20
2024-04-25T22:10:02.442Z,8.13
2024-04-25T22:12:29.711Z,7.99
2024-04-25T22:14:56.882Z,8.00
2024-04-25T22:17:24.044Z,8.13
2024-04-25T22:19:51.157Z,8.18
2024-04-25T22:22:17.995Z,8.02
2024-04-25T22:24:47.223Z,8.14
2024-04-25T22:27:15.351Z,8.03
2024-04-25T22:29:43.266Z,8.03
2024-04-25T22:32:10.149Z,8.02
2024-04-25T22:34:37.394Z,7.97
2024-04-25T22:37:07.097Z,7.84
2024-04-25T22:39:36.222Z,7.75
2024-04-25T22:42:03.088Z,7.65
2024-04-25T22:44:29.934Z,7.39
2024-04-25T22:46:56.779Z,7.57
2024-04-25T22:49:23.772Z,7.67
2024-04-25T22:51:50.798Z,7.47
2024-04-25T22:54:17.698Z,7.44
2024-04-25T22:56:44.537Z,7.43
2024-04-25T22:59:11.522Z,7.47
2024-04-25T23:01:38.296Z,7.57
2024-04-25T23:04:05.188Z,7.39
2024-04-25T23:06:32.021Z,7.40
2024-04-25T23:08:59.268Z,7.39
2024-04-25T23:11:26.147Z,7.29
2024-04-25T23:13:53.338Z,7.19
2024-04-25T23:16:20.215Z,7.15
2024-04-25T23:18:47.059Z,7.06
2024-04-25T23:21:13.895Z,7.24
2024-04-25T23:23:40.814Z,7.28
2024-04-25T23:26:07.849Z,7.27
2024-04-25T23:28:34.734Z,7.25
2024-04-25T23:31:01.551Z,7.40
2024-04-25T23:33:28.720Z,7.28
2024-04-25T23:35:56.038Z,7.26
2024-04-25T23:38:22.918Z,7.16
2024-04-25T23:40:49.760Z,7.13
2024-04-25T23:43:16.552Z,6.96
2024-04-25T23:45:43.545Z,6.97
2024-04-25T23:48:10.507Z,7.11
2024-04-25T23:50:37.467Z,6.92
2024-04-25T23:53:04.406Z,6.95
2024-04-25T23:55:31.184Z,6.79
2024-04-25T23:57:58.178Z,6.71
